Time;durP1;ratioP1;P1;durP2;ratioP2;P2;SDS_P1;SDS_P2;PMS_P1;PMS_P2;Temp;Humidity;BMP_temperature;BMP_pressure;BME280_temperature;BME280_humidity;BME280_pressure;Samples;Min_cycle;Max_cycle;Signal;HPM_P1;HPM_P2
2022/08/11 00:01:40;;;;;;;;;;;;;;;;;;5031138;28;19943;-68
2022/08/11 00:04:06;;;;;;;;;;;;;;;;;;5031621;28;19921;-68
2022/08/11 00:06:34;;;;;;;;;;;;;;;;;;5031027;28;19921;-70
2022/08/11 00:09:00;;;;;;;;;;;;;;;;;;5031979;28;19972;-69
2022/08/11 00:11:26;;;;;;;;;;;;;;;;;;5031588;28;20379;-70
2022/08/11 00:13:53;;;;;;;;;;;;;;;;;;5030617;28;19956;-73
2022/08/11 00:16:19;;;;;;;;;;;;;;;;;;5030011;28;19935;-73
2022/08/11 00:18:46;;;;;;;;;;;;;;;;;;5030652;28;19948;-73
2022/08/11 00:21:12;;;;;;;;;;;;;;;;;;5030532;28;20023;-77
2022/08/11 00:23:38;;;;;;;;;;;;;;;;;;5030962;28;20403;-74
2022/08/11 00:26:05;;;;;;;;;;;;;;;;;;5030943;28;19952;-77
2022/08/11 00:28:31;;;;;;;;;;;;;;;;;;5030601;28;20442;-70
2022/08/11 00:30:58;;;;;;;;;;;;;;;;;;5031106;28;19928;-70
2022/08/11 00:33:24;;;;;;;;;;;;;;;;;;5030952;28;19954;-70
2022/08/11 00:36:10;;;;;;;;;;;;;;;;;;5030910;28;19921;-71
2022/08/11 00:38:36;;;;;;;;;;;;;;;;;;5031227;28;20035;-72
2022/08/11 00:41:03;;;;;;;;;;;;;;;;;;5030904;28;19979;-71
2022/08/11 00:43:29;;;;;;;;;;;;;;;;;;5030023;28;19971;-68
2022/08/11 00:45:56;;;;;;;;;;;;;;;;;;5029926;28;20491;-67
2022/08/11 00:48:22;;;;;;;;;;;;;;;;;;5030223;28;20638;-68
2022/08/11 00:50:48;;;;;;;;;;;;;;;;;;5030703;28;20016;-68
2022/08/11 00:53:15;;;;;;;;;;;;;;;;;;5030034;28;20302;-67
2022/08/11 00:55:42;;;;;;;;;;;;;;;;;;5030593;28;20011;-68
2022/08/11 00:58:12;;;;;;;;;;;;;;;;;;5030281;28;19921;-67
2022/08/11 01:00:38;;;;;;;;;;;;;;;;;;5029977;28;20359;-67
2022/08/11 01:03:05;;;;;;;;;;;;;;;;;;5030597;28;20391;-66
2022/08/11 01:05:31;;;;;;;;;;;;;;;;;;5030093;28;19928;-68
2022/08/11 01:07:58;;;;;;;;;;;;;;;;;;5012060;28;19937;-66
2022/08/11 01:10:28;;;;;;;;;;;;;;;;;;5030530;28;20302;-65
2022/08/11 01:12:54;;;;;;;;;;;;;;;;;;5030826;28;19972;-66
2022/08/11 01:15:21;;;;;;;;;;;;;;;;;;5030548;28;19971;-66
2022/08/11 01:17:47;;;;;;;;;;;;;;;;;;5031158;28;20011;-66
2022/08/11 01:20:14;;;;;;;;;;;;;;;;;;5030545;28;19921;-66
2022/08/11 01:23:00;;;;;;;;;;;;;;;;;;5030394;28;19928;-66
2022/08/11 01:25:27;;;;;;;;;;;;;;;;;;5030000;28;19975;-66
2022/08/11 01:27:53;;;;;;;;;;;;;;;;;;5030921;28;19972;-66
2022/08/11 01:30:19;;;;;;;;;;;;;;;;;;5034198;28;20031;-66
2022/08/11 01:32:46;;;;;;;;;;;;;;;;;;5034141;28;20016;-65
2022/08/11 01:35:12;;;;;;;;;;;;;;;;;;5033427;28;19928;-66
2022/08/11 01:37:39;;;;;;;;;;;;;;;;;;5033318;28;19999;-65
2022/08/11 01:40:05;;;;;;;;;;;;;;;;;;5033258;28;20302;-65
2022/08/11 01:45:17;;;;;;;;;;;;;;;;;;5034246;28;19927;-65
2022/08/11 01:47:49;;;;;;;;;;;;;;;;;;5034441;28;19921;-66
2022/08/11 01:50:17;;;;;;;;;;;;;;;;;;5033834;28;19975;-66
2022/08/11 01:52:44;;;;;;;;;;;;;;;;;;5033939;28;19927;-71
2022/08/11 01:55:10;;;;;;;;;;;;;;;;;;5034001;28;20360;-71
2022/08/11 01:57:37;;;;;;;;;;;;;;;;;;5033356;28;19927;-72
2022/08/11 02:00:03;;;;;;;;;;;;;;;;;;5033267;28;19948;-71
2022/08/11 02:02:46;;;;;;;;;;;;;;;;;;5033066;28;19925;-70
2022/08/11 02:05:13;;;;;;;;;;;;;;;;;;5032638;28;19968;-68
2022/08/11 02:07:39;;;;;;;;;;;;;;;;;;5033166;28;20322;-69
2022/08/11 02:11:29;;;;;;;;;;;;;;;;;;5033674;28;20306;-67
2022/08/11 02:13:01;;;;;;;;;;;;;;;;;;5033094;28;19987;-65
2022/08/11 02:15:28;;;;;;;;;;;;;;;;;;5033284;28;19967;-66
2022/08/11 02:17:54;;;;;;;;;;;;;;;;;;5033176;28;19921;-66
2022/08/11 02:26:11;;;;;;;;;;;;;;;;;;5030855;28;20015;-66
2022/08/11 02:28:37;;;;;;;;;;;;;;;;;;5032669;28;20448;-66
2022/08/11 02:34:11;;;;;;;;;;;;;;;;;;5032661;28;19921;-66
2022/08/11 02:36:37;;;;;;;;;;;;;;;;;;5033375;28;19925;-65
2022/08/11 02:39:03;;;;;;;;;;;;;;;;;;5033121;28;19921;-65
2022/08/11 02:44:17;;;;;;;;;;;;;;;;;;4990058;28;19976;-67
2022/08/11 02:46:43;;;;;;;;;;;;;;;;;;4989974;28;20097;-68
2022/08/11 02:51:54;;;;;;;;;;;;;;;;;;4990199;28;20148;-68
2022/08/11 02:54:21;;;;;;;;;;;;;;;;;;4990828;28;19925;-68
2022/08/11 02:56:50;;;;;;;;;;;;;;;;;;4990652;28;19922;-70
2022/08/11 03:02:02;;;;;;;;;;;;;;;;;;4989760;28;19960;-75
2022/08/11 03:04:30;;;;;;;;;;;;;;;;;;4989689;28;19991;-74
2022/08/11 03:07:03;;;;;;;;;;;;;;;;;;4990336;28;19943;-74
2022/08/11 03:09:30;;;;;;;;;;;;;;;;;;4990534;28;19935;-73
2022/08/11 03:17:26;;;;;;;;;;;;;;;;;;4988975;28;20404;-73
2022/08/11 03:19:52;;;;;;;;;;;;;;;;;;4989674;28;19992;-73
2022/08/11 03:22:20;;;;;;;;;;;;;;;;;;5018176;28;19927;-72
2022/08/11 03:24:47;;;;;;;;;;;;;;;;;;5032044;28;20391;-65
2022/08/11 03:27:13;;;;;;;;;;;;;;;;;;5031834;28;20019;-64
2022/08/11 03:29:40;;;;;;;;;;;;;;;;;;5031690;28;19925;-64
2022/08/11 03:32:06;;;;;;;;;;;;;;;;;;5030815;28;20420;-65
2022/08/11 03:34:36;;;;;;;;;;;;;;;;;;5030636;28;20379;-64
2022/08/11 03:37:03;;;;;;;;;;;;;;;;;;5030796;28;19921;-64
2022/08/11 03:39:42;;;;;;;;;;;;;;;;;;5031173;28;19921;-65
2022/08/11 03:42:21;;;;;;;;;;;;;;;;;;5031499;28;19925;-66
2022/08/11 03:44:47;;;;;;;;;;;;;;;;;;5031523;28;19948;-66
2022/08/11 03:47:14;;;;;;;;;;;;;;;;;;5030091;28;20375;-67
2022/08/11 03:49:41;;;;;;;;;;;;;;;;;;5030838;28;19931;-63
2022/08/11 03:52:08;;;;;;;;;;;;;;;;;;5030911;28;19921;-63
2022/08/11 03:54:34;;;;;;;;;;;;;;;;;;5015523;28;19921;-65
2022/08/11 03:57:02;;;;;;;;;;;;;;;;;;5031840;28;19925;-65
2022/08/11 03:59:29;;;;;;;;;;;;;;;;;;5030888;28;20062;-64
2022/08/11 04:01:55;;;;;;;;;;;;;;;;;;5030420;28;19951;-65
2022/08/11 04:04:22;;;;;;;;;;;;;;;;;;5030710;28;19925;-66
2022/08/11 04:06:48;;;;;;;;;;;;;;;;;;5030397;28;20327;-66
2022/08/11 04:09:15;;;;;;;;;;;;;;;;;;5031423;28;19932;-67
2022/08/11 04:11:41;;;;;;;;;;;;;;;;;;5031236;28;19921;-68
2022/08/11 04:16:53;;;;;;;;;;;;;;;;;;5030149;28;19927;-70
2022/08/11 04:19:19;;;;;;;;;;;;;;;;;;5030474;28;19925;-70
2022/08/11 04:21:46;;;;;;;;;;;;;;;;;;5030561;28;19931;-67
2022/08/11 04:24:12;;;;;;;;;;;;;;;;;;5030958;28;19921;-67
2022/08/11 04:26:58;;;;;;;;;;;;;;;;;;5031297;28;19924;-67
2022/08/11 04:29:25;;;;;;;;;;;;;;;;;;5029832;28;19927;-68
2022/08/11 04:32:01;;;;;;;;;;;;;;;;;;5030363;28;19928;-68
2022/08/11 04:34:27;;;;;;;;;;;;;;;;;;5030133;28;19947;-67
2022/08/11 04:39:39;;;;;;;;;;;;;;;;;;5031361;28;19928;-67
2022/08/11 04:44:56;;;;;;;;;;;;;;;;;;5029504;28;19921;-67
2022/08/11 05:01:47;;;;;;;;;;;;;;;;;;5031013;28;19925;-70
2022/08/11 05:06:59;;;;;;;;;;;;;;;;;;5034248;28;19995;-66
2022/08/11 05:09:25;;;;;;;;;;;;;;;;;;5034507;28;19964;-67
2022/08/11 05:11:52;;;;;;;;;;;;;;;;;;5034984;28;19928;-67
2022/08/11 05:36:45;;;;;;;;;;;;;;;;;;5032197;28;19921;-65
2022/08/11 05:58:42;;;;;;;;;;;;;;;;;;5033398;28;19920;-66
2022/08/11 06:01:08;;;;;;;;;;;;;;;;;;5033372;28;20302;-66
2022/08/11 06:04:12;;;;;;;;;;;;;;;;;;5032103;28;19927;-66
2022/08/11 06:06:23;;;;;;;;;;;;;;;;;;5030838;28;20367;-66
2022/08/11 06:08:49;;;;;;;;;;;;;;;;;;5033686;28;19960;-67
2022/08/11 06:11:17;;;;;;;;;;;;;;;;;;5032933;28;20418;-66
2022/08/11 06:13:43;;;;;;;;;;;;;;;;;;5032639;28;19921;-66
2022/08/11 06:16:10;;;;;;;;;;;;;;;;;;5032574;28;19921;-67
2022/08/11 06:18:36;;;;;;;;;;;;;;;;;;5033584;28;19921;-67
2022/08/11 06:21:03;;;;;;;;;;;;;;;;;;5033955;28;20011;-66
2022/08/11 06:23:29;;;;;;;;;;;;;;;;;;5033323;28;20017;-66
2022/08/11 06:25:56;;;;;;;;;;;;;;;;;;5033007;28;19921;-66
2022/08/11 06:28:24;;;;;;;;;;;;;;;;;;5032701;28;19999;-66
2022/08/11 06:30:51;;;;;;;;;;;;;;;;;;5033679;28;20008;-64
2022/08/11 06:33:17;;;;;;;;;;;;;;;;;;5033472;28;19927;-64
2022/08/11 06:35:44;;;;;;;;;;;;;;;;;;5033265;28;19975;-64
2022/08/11 06:38:11;;;;;;;;;;;;;;;;;;5032436;28;20050;-64
2022/08/11 06:40:37;;;;;;;;;;;;;;;;;;5031969;28;19971;-63
2022/08/11 06:43:04;;;;;;;;;;;;;;;;;;5031547;28;19921;-63
2022/08/11 06:45:30;;;;;;;;;;;;;;;;;;5032544;28;20063;-63
2022/08/11 06:47:59;;;;;;;;;;;;;;;;;;5033366;28;20004;-64
2022/08/11 06:53:11;;;;;;;;;;;;;;;;;;5031223;28;20430;-64
2022/08/11 07:01:10;;;;;;;;;;;;;;;;;;5029549;28;19921;-63
2022/08/11 07:03:36;;;;;;;;;;;;;;;;;;5030551;28;19929;-63
2022/08/11 07:06:03;;;;;;;;;;;;;;;;;;5031000;28;20008;-63
2022/08/11 07:16:45;;;;;;;;;;;;;;;;;;5031321;28;20356;-66
2022/08/11 07:30:13;;;;;;;;;;;;;;;;;;5030709;28;19921;-66
2022/08/11 07:32:40;;;;;;;;;;;;;;;;;;5032108;28;19928;-64
2022/08/11 07:35:06;;;;;;;;;;;;;;;;;;5031296;28;19920;-64
2022/08/11 07:37:33;;;;;;;;;;;;;;;;;;5031528;28;19964;-64
2022/08/11 07:39:59;;;;;;;;;;;;;;;;;;5031243;28;20029;-64
2022/08/11 07:42:26;;;;;;;;;;;;;;;;;;5031192;28;20032;-64
2022/08/11 07:53:08;;;;;;;;;;;;;;;;;;5030998;28;20354;-64
2022/08/11 07:55:35;;;;;;;;;;;;;;;;;;5031063;28;19983;-64
2022/08/11 08:17:52;;;;;;;;;;;;;;;;;;5031445;28;19921;-67
2022/08/11 08:20:33;;;;;;;;;;;;;;;;;;5030937;28;20406;-67
2022/08/11 08:23:00;;;;;;;;;;;;;;;;;;5030278;28;20016;-67
2022/08/11 08:25:26;;;;;;;;;;;;;;;;;;5030930;28;20012;-68
2022/08/11 08:27:53;;;;;;;;;;;;;;;;;;5030501;28;19921;-68
2022/08/11 08:33:04;;;;;;;;;;;;;;;;;;5031409;28;19925;-67
2022/08/11 08:35:31;;;;;;;;;;;;;;;;;;5030261;28;19921;-67
2022/08/11 08:38:01;;;;;;;;;;;;;;;;;;5029804;28;19928;-67
2022/08/11 08:40:27;;;;;;;;;;;;;;;;;;5030688;28;19957;-63
2022/08/11 08:42:54;;;;;;;;;;;;;;;;;;5030474;28;20382;-62
2022/08/11 08:45:21;;;;;;;;;;;;;;;;;;5028814;28;19935;-64
2022/08/11 08:47:47;;;;;;;;;;;;;;;;;;5010731;28;19983;-63
2022/08/11 08:50:18;;;;;;;;;;;;;;;;;;5028776;28;19924;-64
2022/08/11 08:52:45;;;;;;;;;;;;;;;;;;5029230;28;20016;-63
2022/08/11 08:55:12;;;;;;;;;;;;;;;;;;5029594;28;19928;-63
2022/08/11 08:57:38;;;;;;;;;;;;;;;;;;5029577;28;19928;-68
2022/08/11 09:00:05;;;;;;;;;;;;;;;;;;5029779;28;19956;-68
2022/08/11 09:02:32;;;;;;;;;;;;;;;;;;5030580;28;20371;-69
2022/08/11 09:05:00;;;;;;;;;;;;;;;;;;5026319;28;19983;-67
2022/08/11 09:07:26;;;;;;;;;;;;;;;;;;5029926;28;19967;-66
2022/08/11 09:09:56;;;;;;;;;;;;;;;;;;5030367;28;19925;-69
2022/08/11 09:12:23;;;;;;;;;;;;;;;;;;5029690;28;19932;-69
2022/08/11 09:15:04;;;;;;;;;;;;;;;;;;5031421;28;20662;-69
2022/08/11 09:17:31;;;;;;;;;;;;;;;;;;5030074;28;19921;-68
2022/08/11 09:19:59;;;;;;;;;;;;;;;;;;5030101;28;19921;-69
2022/08/11 09:27:57;;;;;;;;;;;;;;;;;;5029966;28;19925;-70
2022/08/11 09:30:26;;;;;;;;;;;;;;;;;;5030362;28;20028;-70
2022/08/11 09:32:56;;;;;;;;;;;;;;;;;;5030213;28;20445;-68
2022/08/11 09:35:23;;;;;;;;;;;;;;;;;;5029914;28;19940;-68
2022/08/11 09:40:34;;;;;;;;;;;;;;;;;;5030182;28;19975;-66
2022/08/11 09:45:50;;;;;;;;;;;;;;;;;;5030441;28;19929;-69
2022/08/11 09:48:17;;;;;;;;;;;;;;;;;;5030509;28;19920;-69
2022/08/11 09:50:44;;;;;;;;;;;;;;;;;;5034172;28;20019;-68
2022/08/11 09:53:11;;;;;;;;;;;;;;;;;;5033690;28;19925;-71
2022/08/11 09:55:57;;;;;;;;;;;;;;;;;;5033933;28;19921;-68
2022/08/11 09:58:23;;;;;;;;;;;;;;;;;;5033348;28;19960;-68
2022/08/11 10:01:25;;;;;;;;;;;;;;;;;;5033837;28;19928;-67
2022/08/11 10:03:52;;;;;;;;;;;;;;;;;;5033515;28;20007;-68
2022/08/11 10:09:04;;;;;;;;;;;;;;;;;;5034015;28;19951;-69
2022/08/11 10:11:30;;;;;;;;;;;;;;;;;;5033276;28;19921;-68
2022/08/11 10:16:59;;;;;;;;;;;;;;;;;;5033393;28;19925;-68
2022/08/11 10:19:25;;;;;;;;;;;;;;;;;;5033347;28;19924;-67
2022/08/11 10:27:22;;;;;;;;;;;;;;;;;;5033162;28;19929;-70
2022/08/11 10:35:25;;;;;;;;;;;;;;;;;;5032591;28;20464;-69
2022/08/11 10:37:52;;;;;;;;;;;;;;;;;;5033081;28;20012;-70
2022/08/11 10:40:34;;;;;;;;;;;;;;;;;;5032848;28;19928;-69
2022/08/11 10:43:12;;;;;;;;;;;;;;;;;;5032741;28;20535;-70
2022/08/11 10:48:41;;;;;;;;;;;;;;;;;;5026624;28;20299;-70
2022/08/11 10:51:13;;;;;;;;;;;;;;;;;;5020312;28;20008;-68
2022/08/11 10:59:10;;;;;;;;;;;;;;;;;;5025441;28;19921;-68
2022/08/11 11:01:36;;;;;;;;;;;;;;;;;;5024586;28;20035;-68
2022/08/11 11:04:03;;;;;;;;;;;;;;;;;;5015045;28;19931;-66
2022/08/11 11:06:30;;;;;;;;;;;;;;;;;;5013191;28;19956;-68
2022/08/11 11:08:56;;;;;;;;;;;;;;;;;;5023303;28;19929;-67
2022/08/11 11:19:39;;;;;;;;;;;;;;;;;;5024548;28;20510;-68
2022/08/11 11:24:50;;;;;;;;;;;;;;;;;;5031280;28;20027;-67
2022/08/11 11:27:17;;;;;;;;;;;;;;;;;;5031830;28;19967;-67
2022/08/11 11:29:43;;;;;;;;;;;;;;;;;;5031312;28;20359;-67
2022/08/11 11:32:10;;;;;;;;;;;;;;;;;;5031320;28;19921;-67
2022/08/11 11:34:36;;;;;;;;;;;;;;;;;;5030868;28;19932;-67
2022/08/11 11:37:02;;;;;;;;;;;;;;;;;;5031528;28;19991;-67
2022/08/11 11:39:29;;;;;;;;;;;;;;;;;;5031031;28;19948;-67
2022/08/11 11:41:56;;;;;;;;;;;;;;;;;;5031750;28;20035;-67
2022/08/11 11:44:22;;;;;;;;;;;;;;;;;;5030947;28;19924;-67
2022/08/11 11:46:49;;;;;;;;;;;;;;;;;;5030925;28;20379;-67
2022/08/11 11:49:17;;;;;;;;;;;;;;;;;;5030926;28;19925;-67
2022/08/11 11:51:43;;;;;;;;;;;;;;;;;;5031164;28;19936;-67
2022/08/11 11:54:10;;;;;;;;;;;;;;;;;;5031447;28;19936;-68
2022/08/11 11:56:37;;;;;;;;;;;;;;;;;;5030906;28;20040;-67
2022/08/11 12:01:48;;;;;;;;;;;;;;;;;;5031069;28;20391;-67
2022/08/11 12:04:15;;;;;;;;;;;;;;;;;;5030915;28;19920;-68
2022/08/11 12:06:42;;;;;;;;;;;;;;;;;;5030753;28;20007;-67
2022/08/11 12:09:08;;;;;;;;;;;;;;;;;;5030979;28;19921;-67
2022/08/11 12:14:20;;;;;;;;;;;;;;;;;;5030073;28;20020;-68
2022/08/11 12:16:46;;;;;;;;;;;;;;;;;;5030558;28;19925;-68
2022/08/11 12:19:13;;;;;;;;;;;;;;;;;;5030819;28;19921;-68
2022/08/11 12:27:20;;;;;;;;;;;;;;;;;;5030622;28;19968;-68
2022/08/11 12:29:49;;;;;;;;;;;;;;;;;;5029770;28;20084;-68
2022/08/11 12:32:20;;;;;;;;;;;;;;;;;;5030099;28;19932;-68
2022/08/11 12:34:47;;;;;;;;;;;;;;;;;;5030241;28;20385;-67
2022/08/11 12:37:13;;;;;;;;;;;;;;;;;;5030461;28;20019;-68
2022/08/11 12:45:30;;;;;;;;;;;;;;;;;;4988659;28;19922;-68
2022/08/11 12:53:46;;;;;;;;;;;;;;;;;;4988121;28;20005;-68
2022/08/11 13:07:12;;;;;;;;;;;;;;;;;;4989054;28;19982;-68
2022/08/11 13:09:39;;;;;;;;;;;;;;;;;;4989085;28;19930;-69
2022/08/11 13:14:50;;;;;;;;;;;;;;;;;;4989105;28;19921;-68
2022/08/11 13:17:20;;;;;;;;;;;;;;;;;;4980011;28;19982;-68
2022/08/11 13:19:47;;;;;;;;;;;;;;;;;;5007853;28;20433;-69
2022/08/11 13:22:15;;;;;;;;;;;;;;;;;;5029852;28;19964;-69
2022/08/11 13:24:41;;;;;;;;;;;;;;;;;;5031879;28;19964;-69
2022/08/11 13:27:11;;;;;;;;;;;;;;;;;;5033434;28;19921;-68
2022/08/11 13:29:39;;;;;;;;;;;;;;;;;;5033796;28;19960;-69
2022/08/11 13:32:05;;;;;;;;;;;;;;;;;;5033171;28;20326;-69
2022/08/11 13:34:32;;;;;;;;;;;;;;;;;;5033568;28;20012;-69
2022/08/11 13:36:59;;;;;;;;;;;;;;;;;;5033957;28;19931;-69
2022/08/11 13:39:25;;;;;;;;;;;;;;;;;;5034464;28;19921;-69
2022/08/11 13:41:52;;;;;;;;;;;;;;;;;;5033507;28;19974;-68
2022/08/11 13:44:18;;;;;;;;;;;;;;;;;;5033832;28;20019;-70
2022/08/11 13:46:50;;;;;;;;;;;;;;;;;;5033718;28;19920;-71
2022/08/11 13:49:18;;;;;;;;;;;;;;;;;;5034067;28;20011;-70
2022/08/11 13:51:44;;;;;;;;;;;;;;;;;;5033838;28;20008;-70
2022/08/11 13:54:11;;;;;;;;;;;;;;;;;;5034003;28;20007;-70
2022/08/11 13:56:40;;;;;;;;;;;;;;;;;;5033140;28;20012;-71
2022/08/11 13:59:07;;;;;;;;;;;;;;;;;;5033440;28;20458;-71
2022/08/11 14:01:33;;;;;;;;;;;;;;;;;;5033384;28;20290;-70
2022/08/11 14:04:20;;;;;;;;;;;;;;;;;;5033227;28;20378;-71
2022/08/11 14:06:54;;;;;;;;;;;;;;;;;;5033292;28;19979;-71
2022/08/11 14:09:20;;;;;;;;;;;;;;;;;;5033317;28;20037;-70
2022/08/11 14:14:48;;;;;;;;;;;;;;;;;;5033011;28;20401;-70
2022/08/11 14:17:14;;;;;;;;;;;;;;;;;;5032712;28;20011;-70
2022/08/11 14:20:01;;;;;;;;;;;;;;;;;;5033038;28;20425;-70
2022/08/11 14:22:27;;;;;;;;;;;;;;;;;;5032365;28;19921;-70
2022/08/11 14:24:54;;;;;;;;;;;;;;;;;;5032137;28;20020;-70
2022/08/11 14:27:25;;;;;;;;;;;;;;;;;;5032852;28;19921;-70
2022/08/11 14:30:54;;;;;;;;;;;;;;;;;;5033075;28;20328;-71
2022/08/11 14:32:58;;;;;;;;;;;;;;;;;;5032381;28;20011;-70
2022/08/11 14:35:25;;;;;;;;;;;;;;;;;;5031029;28;20381;-70
2022/08/11 14:37:52;;;;;;;;;;;;;;;;;;5032988;28;19921;-70
2022/08/11 14:48:54;;;;;;;;;;;;;;;;;;5032630;28;20302;-71
2022/08/11 14:51:20;;;;;;;;;;;;;;;;;;5015684;28;19927;-71
2022/08/11 14:53:46;;;;;;;;;;;;;;;;;;5032375;28;20335;-71
2022/08/11 14:56:36;;;;;;;;;;;;;;;;;;5032155;28;20466;-71
2022/08/11 14:59:02;;;;;;;;;;;;;;;;;;5031369;28;19978;-71
2022/08/11 15:04:15;;;;;;;;;;;;;;;;;;5032865;28;19927;-71
2022/08/11 15:07:01;;;;;;;;;;;;;;;;;;5033115;28;20006;-71
2022/08/11 15:09:27;;;;;;;;;;;;;;;;;;5032315;28;20019;-71
2022/08/11 15:12:08;;;;;;;;;;;;;;;;;;5032948;28;20019;-71
2022/08/11 15:17:40;;;;;;;;;;;;;;;;;;5031550;28;19921;-70
2022/08/11 15:25:39;;;;;;;;;;;;;;;;;;5031545;28;19925;-71
2022/08/11 15:39:06;;;;;;;;;;;;;;;;;;5031058;28;20395;-71
2022/08/11 15:47:27;;;;;;;;;;;;;;;;;;5031396;28;19921;-71
2022/08/11 15:49:53;;;;;;;;;;;;;;;;;;5031521;28;20470;-72
2022/08/11 15:52:38;;;;;;;;;;;;;;;;;;5031986;28;20504;-72
2022/08/11 15:55:04;;;;;;;;;;;;;;;;;;5031571;28;19925;-71
2022/08/11 16:05:46;;;;;;;;;;;;;;;;;;5031191;28;19967;-70
2022/08/11 16:08:18;;;;;;;;;;;;;;;;;;5031384;28;19999;-75
2022/08/11 16:10:49;;;;;;;;;;;;;;;;;;5031153;28;19925;-74
2022/08/11 16:18:39;;;;;;;;;;;;;;;;;;5031832;28;19966;-67
2022/08/11 16:21:05;;;;;;;;;;;;;;;;;;5031504;28;19921;-68
2022/08/11 16:23:32;;;;;;;;;;;;;;;;;;5031004;28;19921;-68
2022/08/11 16:25:59;;;;;;;;;;;;;;;;;;5030722;28;20363;-67
2022/08/11 16:28:45;;;;;;;;;;;;;;;;;;5027436;28;19929;-67
2022/08/11 16:31:12;;;;;;;;;;;;;;;;;;5030660;28;19921;-68
2022/08/11 16:33:40;;;;;;;;;;;;;;;;;;5030529;28;19972;-68
2022/08/11 16:39:01;;;;;;;;;;;;;;;;;;5031462;28;19921;-67
2022/08/11 16:47:03;;;;;;;;;;;;;;;;;;5029951;28;20019;-67
2022/08/11 16:49:29;;;;;;;;;;;;;;;;;;5030356;28;19960;-68
2022/08/11 16:52:02;;;;;;;;;;;;;;;;;;5029884;28;20015;-67
2022/08/11 16:54:29;;;;;;;;;;;;;;;;;;5030593;28;20338;-67
2022/08/11 16:56:55;;;;;;;;;;;;;;;;;;5029084;28;19987;-68
2022/08/11 16:59:21;;;;;;;;;;;;;;;;;;5029604;28;20015;-68
2022/08/11 17:01:48;;;;;;;;;;;;;;;;;;5030133;28;20331;-69
2022/08/11 17:13:07;;;;;;;;;;;;;;;;;;5030176;28;20441;-67
2022/08/11 17:13:09;;;;;;;;;;;;;;;;;;5029789;28;19921;-69
2022/08/11 17:18:39;;;;;;;;;;;;;;;;;;5031130;28;19959;-68
2022/08/11 17:21:05;;;;;;;;;;;;;;;;;;5029108;28;20379;-69
2022/08/11 17:23:48;;;;;;;;;;;;;;;;;;5029898;28;20015;-71
2022/08/11 17:26:15;;;;;;;;;;;;;;;;;;5024616;28;20291;-70
2022/08/11 17:28:41;;;;;;;;;;;;;;;;;;5029160;28;19936;-70
2022/08/11 17:36:38;;;;;;;;;;;;;;;;;;5029758;28;19979;-71
2022/08/11 17:39:10;;;;;;;;;;;;;;;;;;5030717;28;19968;-70
2022/08/11 17:49:52;;;;;;;;;;;;;;;;;;5029395;28;20027;-71
2022/08/11 18:00:54;;;;;;;;;;;;;;;;;;5027975;28;19997;-72
2022/08/11 18:03:37;;;;;;;;;;;;;;;;;;5028978;28;20345;-72
2022/08/11 18:06:04;;;;;;;;;;;;;;;;;;5029403;28;20299;-72
